createdAt,value
2023-02-11T00:04:42.572Z,47
2023-02-11T00:09:42.585Z,46
2023-02-11T00:14:42.373Z,46
2023-02-11T00:19:42.286Z,46
2023-02-11T00:24:42.816Z,46
2023-02-11T00:29:42.838Z,46
2023-02-11T00:34:42.479Z,45
2023-02-11T00:39:42.590Z,45
2023-02-11T00:44:42.397Z,45
2023-02-11T00:49:42.470Z,46
2023-02-11T00:54:42.220Z,45
2023-02-11T00:59:42.541Z,45
2023-02-11T01:04:42.300Z,44
2023-02-11T01:09:42.514Z,44
2023-02-11T01:14:42.403Z,44
2023-02-11T01:19:42.234Z,44
2023-02-11T01:24:42.532Z,45
2023-02-11T01:29:42.621Z,44
2023-02-11T01:34:42.258Z,44
2023-02-11T01:39:42.513Z,44
2023-02-11T01:44:42.397Z,44
2023-02-11T01:49:44.395Z,44
2023-02-11T01:54:42.399Z,44
2023-02-11T01:59:42.248Z,44
2023-02-11T02:04:45.669Z,44
2023-02-11T02:09:42.221Z,45
2023-02-11T02:15:10.325Z,43
2023-02-11T02:19:42.370Z,41
2023-02-11T02:24:51.117Z,39
2023-02-11T02:29:56.872Z,36
2023-02-11T02:34:42.230Z,35
2023-02-11T02:39:44.815Z,33
2023-02-11T02:44:42.343Z,31
2023-02-11T02:49:42.061Z,30
2023-02-11T02:54:42.213Z,29
2023-02-11T02:59:45.846Z,28
2023-02-11T03:04:47.241Z,27
2023-02-11T03:09:42.169Z,26
2023-02-11T03:14:43.258Z,26
2023-02-11T03:19:42.382Z,25
2023-02-11T03:24:42.429Z,25
2023-02-11T03:29:42.075Z,24
2023-02-11T03:34:42.135Z,24
2023-02-11T03:39:45.360Z,24
2023-02-11T03:44:42.123Z,24
2023-02-11T03:49:42.619Z,25
2023-02-11T03:54:42.109Z,25
2023-02-11T03:59:42.087Z,25
2023-02-11T04:04:42.327Z,25
2023-02-11T04:09:42.189Z,27
2023-02-11T04:14:42.133Z,28
2023-02-11T04:19:42.189Z,28
2023-02-11T04:24:42.225Z,28
2023-02-11T04:29:42.090Z,29
2023-02-11T04:34:42.169Z,30
2023-02-11T04:39:42.550Z,30
2023-02-11T04:44:42.264Z,31
2023-02-11T04:49:42.027Z,31
2023-02-11T04:54:42.208Z,31
2023-02-11T04:59:42.335Z,32
2023-02-11T05:04:42.320Z,31
2023-02-11T05:09:42.241Z,31
2023-02-11T05:14:41.965Z,32
2023-02-11T05:19:42.336Z,33
2023-02-11T05:24:41.899Z,33
2023-02-11T05:29:42.020Z,33
2023-02-11T05:34:42.251Z,34
2023-02-11T05:39:42.279Z,34
2023-02-11T05:44:42.148Z,35
2023-02-11T05:49:42.446Z,36
2023-02-11T05:54:42.189Z,37
2023-02-11T05:59:42.234Z,37
2023-02-11T06:04:41.917Z,38
2023-02-11T06:09:42.505Z,39
2023-02-11T06:14:42.652Z,40
2023-02-11T06:19:42.078Z,40
2023-02-11T06:25:00.205Z,40
2023-02-11T06:29:42.464Z,41
2023-02-11T06:34:42.066Z,42
2023-02-11T06:39:41.989Z,43
2023-02-11T06:44:42.133Z,43
2023-02-11T06:49:42.189Z,43
2023-02-11T06:54:42.294Z,43
2023-02-11T06:59:42.299Z,43
2023-02-11T07:04:42.105Z,44
2023-02-11T07:09:42.439Z,45
2023-02-11T07:14:42.124Z,45
2023-02-11T07:19:42.315Z,46
2023-02-11T07:24:42.310Z,46
2023-02-11T07:29:42.076Z,46
2023-02-11T07:34:42.327Z,46
2023-02-11T07:39:42.075Z,47
2023-02-11T07:44:42.247Z,48
2023-02-11T07:49:42.388Z,49
2023-02-11T07:54:42.213Z,50
2023-02-11T07:59:42.229Z,50
2023-02-11T08:04:42.154Z,51
2023-02-11T08:09:41.849Z,52
2023-02-11T08:14:41.903Z,51
2023-02-11T08:19:42.046Z,52
2023-02-11T08:24:41.974Z,54
2023-02-11T08:29:41.807Z,54
2023-02-11T08:34:42.360Z,53
2023-02-11T08:39:41.959Z,52
2023-02-11T08:44:42.123Z,53
2023-02-11T08:49:41.847Z,54
2023-02-11T08:54:41.995Z,55
2023-02-11T08:59:42.034Z,57
2023-02-11T09:04:42.042Z,56
2023-02-11T09:09:41.902Z,56
2023-02-11T09:14:41.876Z,57
2023-02-11T09:19:42.064Z,58
2023-02-11T09:24:42.430Z,59
2023-02-11T09:29:41.980Z,60
2023-02-11T09:34:42.266Z,60
2023-02-11T09:39:42.091Z,61
2023-02-11T09:44:42.216Z,60
2023-02-11T09:49:41.921Z,59
2023-02-11T09:54:48.505Z,59
2023-02-11T09:59:41.724Z,60
2023-02-11T10:04:42.056Z,60
2023-02-11T10:09:41.908Z,61
2023-02-11T10:14:42.022Z,60
2023-02-11T10:19:50.225Z,60
2023-02-11T10:24:47.536Z,60
2023-02-11T10:29:46.930Z,59
2023-02-11T10:34:42.190Z,58
2023-02-11T10:39:41.826Z,58
2023-02-11T10:44:41.881Z,59
2023-02-11T10:49:44.640Z,59
2023-02-11T10:54:54.166Z,59
2023-02-11T10:59:41.913Z,58
2023-02-11T11:04:41.924Z,57
2023-02-11T11:09:43.900Z,57
2023-02-11T11:14:41.841Z,56
2023-02-11T11:19:41.920Z,55
2023-02-11T11:24:41.939Z,55
2023-02-11T11:29:44.188Z,53
2023-02-11T11:34:42.809Z,53
2023-02-11T11:39:41.886Z,51
2023-02-11T11:44:54.666Z,50
2023-02-11T11:49:41.823Z,48
2023-02-11T11:54:42.449Z,47
2023-02-11T11:59:41.779Z,45
2023-02-11T12:04:41.756Z,44
2023-02-11T12:09:42.009Z,41
2023-02-11T12:14:44.915Z,40
2023-02-11T12:19:41.729Z,38
2023-02-11T12:24:48.773Z,37
2023-02-11T12:29:41.830Z,36
2023-02-11T12:34:41.941Z,35
2023-02-11T12:39:41.832Z,34
2023-02-11T12:44:51.291Z,33
2023-02-11T12:49:51.416Z,33
2023-02-11T12:54:41.723Z,33
2023-02-11T12:59:46.537Z,32
2023-02-11T13:04:41.642Z,31
2023-02-11T13:09:44.400Z,30
2023-02-11T13:14:41.699Z,30
2023-02-11T13:19:41.581Z,29
2023-02-11T13:24:41.660Z,28
2023-02-11T13:30:04.124Z,27
2023-02-11T13:34:41.597Z,27
2023-02-11T13:39:41.753Z,26
2023-02-11T13:44:42.024Z,26
2023-02-11T13:49:49.059Z,25
2023-02-11T13:54:46.716Z,25
2023-02-11T13:59:41.855Z,24
2023-02-11T14:04:41.679Z,24
2023-02-11T14:09:42.279Z,24
2023-02-11T14:14:41.826Z,24
2023-02-11T14:19:41.666Z,24
2023-02-11T14:24:47.199Z,23
2023-02-11T14:29:41.768Z,23
2023-02-11T14:34:48.561Z,23
2023-02-11T14:39:41.556Z,23
2023-02-11T14:44:42.227Z,23
2023-02-11T14:49:41.894Z,23
2023-02-11T14:54:41.578Z,23
2023-02-11T14:59:51.535Z,22
2023-02-11T15:04:41.875Z,22
2023-02-11T15:09:41.749Z,22
2023-02-11T15:14:44.712Z,22
2023-02-11T15:19:44.210Z,22
2023-02-11T15:24:41.870Z,23
2023-02-11T15:29:42.979Z,22
2023-02-11T15:34:41.886Z,22
2023-02-11T15:39:41.741Z,22
2023-02-11T15:44:42.185Z,22
2023-02-11T15:49:41.642Z,22
2023-02-11T15:54:44.890Z,22
2023-02-11T15:59:41.511Z,21
2023-02-11T16:04:41.786Z,21
2023-02-11T16:09:41.642Z,21
2023-02-11T16:14:41.779Z,22
2023-02-11T16:19:41.778Z,22
2023-02-11T16:24:41.663Z,22
2023-02-11T16:29:41.659Z,22
2023-02-11T16:34:41.537Z,22
2023-02-11T16:39:41.513Z,22
2023-02-11T16:44:41.493Z,22
2023-02-11T16:49:41.623Z,21
2023-02-11T16:54:41.527Z,21
2023-02-11T16:59:41.652Z,21
2023-02-11T17:04:41.750Z,22
2023-02-11T17:09:41.876Z,22
2023-02-11T17:14:41.632Z,23
2023-02-11T17:19:41.916Z,24
2023-02-11T17:24:41.941Z,24
2023-02-11T17:29:41.421Z,25
2023-02-11T17:34:41.757Z,25
2023-02-11T17:39:41.499Z,26
2023-02-11T17:44:42.615Z,27
2023-02-11T17:49:42.328Z,26
2023-02-11T17:54:41.645Z,27
2023-02-11T17:59:41.564Z,26
2023-02-11T18:04:41.872Z,27
2023-02-11T18:09:42.405Z,29
2023-02-11T18:14:41.859Z,30
2023-02-11T18:19:41.459Z,30
2023-02-11T18:24:41.657Z,29
2023-02-11T18:29:41.449Z,28
2023-02-11T18:34:41.611Z,28
2023-02-11T18:39:42.618Z,28
2023-02-11T18:44:41.661Z,27
2023-02-11T18:49:41.568Z,27
2023-02-11T18:54:41.624Z,27
2023-02-11T18:59:41.631Z,28
2023-02-11T19:04:41.582Z,29
2023-02-11T19:09:42.199Z,30
2023-02-11T19:14:41.453Z,29
2023-02-11T19:19:41.666Z,31
2023-02-11T19:24:41.457Z,31
2023-02-11T19:29:41.312Z,31
2023-02-11T19:34:41.865Z,33
2023-02-11T19:39:41.518Z,34
2023-02-11T19:44:41.442Z,35
2023-02-11T19:49:41.392Z,36
2023-02-11T19:54:41.357Z,38
2023-02-11T19:59:41.996Z,40
2023-02-11T20:04:41.589Z,41
2023-02-11T20:09:41.733Z,40
2023-02-11T20:14:41.405Z,40
2023-02-11T20:19:41.279Z,40
2023-02-11T20:24:41.587Z,40
2023-02-11T20:29:41.850Z,41
2023-02-11T20:34:41.297Z,42
2023-02-11T20:39:44.011Z,43
2023-02-11T20:44:41.473Z,42
2023-02-11T20:49:41.259Z,43
2023-02-11T20:54:41.956Z,44
2023-02-11T20:59:41.667Z,44
2023-02-11T21:04:41.897Z,46
2023-02-11T21:09:41.473Z,47
2023-02-11T21:14:41.687Z,49
2023-02-11T21:19:41.785Z,49
2023-02-11T21:24:41.616Z,49
2023-02-11T21:29:53.383Z,49
2023-02-11T21:34:41.293Z,48
2023-02-11T21:39:41.668Z,48
2023-02-11T21:44:41.841Z,47
2023-02-11T21:49:41.397Z,46
2023-02-11T21:54:41.388Z,47
2023-02-11T21:59:41.241Z,49
2023-02-11T22:04:41.519Z,48
2023-02-11T22:09:41.260Z,49
2023-02-11T22:14:41.444Z,50
2023-02-11T22:19:41.468Z,51
2023-02-11T22:24:41.148Z,51
2023-02-11T22:29:41.089Z,49
2023-02-11T22:34:41.689Z,49
2023-02-11T22:39:41.447Z,48
2023-02-11T22:44:41.458Z,47
2023-02-11T22:49:41.578Z,47
2023-02-11T22:54:41.766Z,47
2023-02-11T22:59:41.179Z,47
2023-02-11T23:04:41.505Z,47
2023-02-11T23:09:42.143Z,46
2023-02-11T23:14:41.387Z,46
2023-02-11T23:19:41.703Z,47
2023-02-11T23:24:41.265Z,48
2023-02-11T23:29:41.627Z,48
2023-02-11T23:34:41.358Z,48
2023-02-11T23:39:41.115Z,47
2023-02-11T23:44:41.268Z,47
2023-02-11T23:49:41.379Z,47
2023-02-11T23:54:41.418Z,47
2023-02-11T23:59:43.111Z,48
